Latest METARs, TAFs and NOTAMs for EGSS


---------------------------------------------------------------------------
	(OBSERVATIONS)
EGSS 221420Z AUTO 09012KT 9999 SCT033 05/M03 Q1024=
EGSS 221350Z AUTO 10011KT 9999 SCT033 05/M03 Q1024=
EGSS 221320Z AUTO 09012KT 9999 BKN031 05/M03 Q1024=
EGSS 221250Z AUTO 10012KT 070V130 9999 SCT031 04/M02 Q1024=
EGSS 221220Z AUTO 09013KT 9999 BKN029 05/M01 Q1024=
EGSS 221150Z AUTO 11013KT 9999 BKN028 03/M03 Q1024=
---------------------------------------------------------------------------
	(FC)
Sorry, FC For EGSS Not Found
---------------------------------------------------------------------------
	(TERMINAL AREA FORECAST)
EGSS 221100Z 2212/2318 08008KT 9999 SCT030
    PROB30 TEMPO 2212/2222 8000
    BECMG 2222/2301 6000
    BECMG 2308/2311 9999=
---------------------------------------------------------------------------
	(NOTAMS)


EGSS A0370/18 CRANE OPERATING AT STANSTED AT POSITION FROM ARP
    232 DEGREES MAGNETIC DISTANCE FROM ARP 1627M. PSN 515234N
    0001258E. MAXIMUM OPERATING HEIGHT 121FT AGL/436FT AMSL,
    JIBS LIT WITH RED OBST LIGHTS. MON-SAT 0700-1800, 31 JAN
    11:29 2018 UNTIL 28 FEB 18:00 2018. CREATED: 31 JAN 11:31
    2018

EGSS A0407/18 STEADY RED OBSTRUCTION LIGHT FOR TELECOMS MAST
    U/S 101 DEGREES, 3320M FROM STANSTED ARP, PSN 515237N 0001556E
    HEIGHT FIXED OBJECT 167 FEET AGL 492 FEET AMSL. 02 FEB 08:31
    2018 UNTIL 02 MAR 18:00 2018. CREATED: 02 FEB 08:33 2018

EGSS A3556/17 NEW TAXIWAY INFRASTRUCTURE NORTHEAST OF TAXIWAY
    LINK DELTA, EXTENSION OF TAXIWAY HOTEL BETWEEN LINK DELTA
    AND NEW LINK ECHO FEEDING APRON ECHO. 26 OCT 11:44 2017 UNTIL
    PERM. CREATED: 26 OCT 11:46 2017

---------------------------------------------------------------------------